Time;durP1;ratioP1;P1;durP2;ratioP2;P2;SDS_P1;SDS_P2;PMS_P1;PMS_P2;Temp;Humidity;BMP_temperature;BMP_pressure;BME280_temperature;BME280_humidity;BME280_pressure;Samples;Min_cycle;Max_cycle;Signal;HPM_P1;HPM_P2
2020/12/17 00:00:16;;;;;;;88.97;27.92;;;;;;;3.26;93.42;101092.84;4978666;28;20041;-75
2020/12/17 00:02:41;;;;;;;90.57;29.55;;;;;;;3.18;93.27;101082.41;4995786;28;20435;-77
2020/12/17 00:05:07;;;;;;;87.85;28.15;;;;;;;3.16;93.46;101081.56;4996001;28;20030;-76
2020/12/17 00:07:33;;;;;;;82.70;28.38;;;;;;;3.22;93.31;101091.16;4978793;28;20476;-76
2020/12/17 00:09:58;;;;;;;83.15;28.48;;;;;;;3.14;93.70;101078.09;4995561;28;20031;-76
2020/12/17 00:12:23;;;;;;;82.82;27.98;;;;;;;3.22;93.50;101099.06;4995681;28;20038;-76
2020/12/17 00:14:49;;;;;;;84.97;27.98;;;;;;;3.17;93.71;101080.66;4978308;28;20046;-74
2020/12/17 00:17:14;;;;;;;81.82;28.40;;;;;;;3.22;93.38;101092.03;4978764;28;20046;-75
2020/12/17 00:19:40;;;;;;;85.03;28.17;;;;;;;3.02;93.28;101046.69;4962597;28;20105;-82
2020/12/17 00:22:05;;;;;;;83.53;26.80;;;;;;;2.94;93.17;101040.66;4961917;28;20069;-75
2020/12/17 00:24:31;;;;;;;83.50;27.45;;;;;;;3.30;92.96;101090.13;4995733;28;20038;-74
2020/12/17 00:26:56;;;;;;;83.97;27.27;;;;;;;3.09;92.69;101048.31;4995200;28;20035;-75
2020/12/17 00:29:21;;;;;;;78.28;26.70;;;;;;;3.18;92.94;101063.94;4978393;28;20092;-75
2020/12/17 00:31:52;;;;;;;78.05;27.45;;;;;;;3.29;92.99;101083.13;4995017;28;20049;-76
2020/12/17 00:34:19;;;;;;;82.55;26.23;;;;;;;3.11;92.76;101046.53;4995595;28;20042;-74
2020/12/17 00:36:45;;;;;;;83.70;27.05;;;;;;;3.31;92.64;101076.03;4994953;28;20042;-74
2020/12/17 00:39:11;;;;;;;77.13;25.27;;;;;;;3.33;92.44;101074.25;4995283;28;20091;-74
2020/12/17 00:41:36;;;;;;;71.85;25.77;;;;;;;3.18;92.06;101048.13;4994146;28;20138;-74
2020/12/17 00:44:02;;;;;;;73.57;24.88;;;;;;;3.38;91.86;101080.34;4977748;28;20044;-74
2020/12/17 00:46:27;;;;;;;74.00;25.35;;;;;;;3.41;91.86;101088.19;4977882;28;20041;-74
2020/12/17 00:48:54;;;;;;;78.40;25.00;;;;;;;3.37;91.89;101081.19;4994571;28;20126;-76
2020/12/17 00:51:19;;;;;;;71.70;25.60;;;;;;;3.32;92.10;101088.34;4995054;28;20037;-76
2020/12/17 00:53:44;;;;;;;72.68;25.15;;;;;;;2.99;92.06;101031.78;4977650;28;20456;-76
2020/12/17 00:56:10;;;;;;;72.90;26.50;;;;;;;3.30;92.36;101090.13;4977365;28;20070;-75
2020/12/17 00:58:35;;;;;;;77.70;25.50;;;;;;;3.33;92.41;101095.34;4995153;28;20439;-74
2020/12/17 01:01:06;;;;;;;77.13;26.38;;;;;;;3.31;92.04;101097.16;4995041;28;20045;-75
2020/12/17 01:03:31;;;;;;;81.32;26.08;;;;;;;3.31;92.36;101102.41;4976942;28;20039;-75
2020/12/17 01:05:56;;;;;;;75.90;26.30;;;;;;;3.30;92.29;101105.97;4976368;28;20027;-74
2020/12/17 01:08:22;;;;;;;75.38;24.52;;;;;;;3.28;92.10;101109.50;4977614;28;20089;-74
2020/12/17 01:10:47;;;;;;;70.03;24.27;;;;;;;3.34;91.86;101112.03;4977200;28;20042;-74
2020/12/17 01:13:12;;;;;;;68.70;24.20;;;;;;;3.30;91.67;101113.88;4977461;28;20435;-75
2020/12/17 01:15:38;;;;;;;71.60;24.55;;;;;;;3.23;91.47;101088.50;4961039;28;20039;-74
2020/12/17 01:18:03;;;;;;;78.28;25.83;;;;;;;3.31;91.26;101094.50;4960796;28;20034;-75
2020/12/17 01:20:28;;;;;;;77.53;25.30;;;;;;;3.40;91.52;101118.09;4994748;28;20061;-75
2020/12/17 01:22:54;;;;;;;71.72;26.70;;;;;;;3.34;91.71;101091.81;4976998;28;20077;-77
2020/12/17 01:25:19;;;;;;;75.20;24.80;;;;;;;3.34;92.09;101109.41;4994360;28;20031;-76
2020/12/17 01:27:45;;;;;;;79.95;27.58;;;;;;;3.34;92.24;101109.41;4994333;28;20118;-81
2020/12/17 01:30:10;;;;;;;78.45;26.60;;;;;;;3.00;92.26;101059.00;4994441;28;20038;-78
2020/12/17 01:32:35;;;;;;;72.28;25.08;;;;;;;3.13;92.14;101069.31;4994404;28;20047;-76
2020/12/17 01:35:01;;;;;;;76.10;25.60;;;;;;;3.09;91.56;101058.88;4960475;28;20093;-76
2020/12/17 01:37:26;;;;;;;69.80;24.48;;;;;;;3.16;91.67;101071.88;4976813;28;20141;-75
2020/12/17 01:39:51;;;;;;;73.65;24.75;;;;;;;3.36;91.65;101094.41;4976620;28;20109;-77
2020/12/17 01:42:17;;;;;;;78.93;26.30;;;;;;;3.34;91.82;101094.44;4994295;28;20038;-77
2020/12/17 01:44:43;;;;;;;68.30;25.10;;;;;;;3.10;91.64;101058.84;4976822;28;20038;-78
2020/12/17 01:47:09;;;;;;;75.15;26.08;;;;;;;3.09;92.02;101048.31;4993967;28;20034;-77
2020/12/17 01:49:34;;;;;;;80.20;26.42;;;;;;;3.33;92.15;101094.47;4994132;28;20088;-77
2020/12/17 01:52:00;;;;;;;80.57;27.52;;;;;;;3.28;91.93;101089.28;4993785;28;20042;-77
2020/12/17 01:54:25;;;;;;;79.88;27.00;;;;;;;3.24;92.14;101095.50;4976393;28;20092;-74
2020/12/17 01:57:02;;;;;;;77.07;27.55;;;;;;;3.01;92.30;101055.47;4993770;28;20404;-74
2020/12/17 01:59:33;;;;;;;75.57;25.10;;;;;;;3.27;92.61;101105.13;4976627;28;20365;-73
2020/12/17 02:02:03;;;;;;;73.40;26.42;;;;;;;3.33;92.18;101099.75;4976036;28;20061;-73
2020/12/17 02:04:28;;;;;;;74.88;26.90;;;;;;;3.20;92.09;101085.91;4993781;28;20091;-77
2020/12/17 02:06:53;;;;;;;73.20;25.98;;;;;;;3.33;92.00;101103.25;4993401;28;20482;-77
2020/12/17 02:09:20;;;;;;;77.78;26.75;;;;;;;3.30;92.24;101086.63;4976306;28;20117;-77
2020/12/17 02:11:56;;;;;;;73.40;24.77;;;;;;;3.09;92.10;101064.13;4960499;28;20404;-77
2020/12/17 02:14:22;;;;;;;74.07;25.02;;;;;;;3.04;92.24;101063.31;4993632;28;20031;-77
2020/12/17 02:16:48;;;;;;;73.25;26.33;;;;;;;3.24;92.32;101095.50;4975638;28;20031;-81
2020/12/17 02:19:13;;;;;;;73.93;25.05;;;;;;;3.07;92.34;101066.78;4993536;28;20035;-77
2020/12/17 02:21:39;;;;;;;75.28;25.98;;;;;;;3.20;92.87;101078.00;4976186;28;20073;-76
2020/12/17 02:24:04;;;;;;;78.10;26.50;;;;;;;3.25;92.45;101102.50;4993311;28;20512;-75
2020/12/17 02:26:30;;;;;;;75.60;26.05;;;;;;;3.28;92.95;101102.47;4976224;28;20096;-76
2020/12/17 02:28:56;;;;;;;78.13;26.83;;;;;;;3.26;92.89;101108.66;4993145;28;20030;-75
2020/12/17 02:31:24;;;;;;;71.57;25.98;;;;;;;3.24;92.76;101103.41;4976184;28;20460;-75
2020/12/17 02:33:50;;;;;;;82.70;27.88;;;;;;;3.27;93.11;101108.63;4975698;28;20057;-75
2020/12/17 02:36:16;;;;;;;77.28;25.98;;;;;;;3.31;93.41;101118.25;4993519;28;20536;-75
2020/12/17 02:38:45;;;;;;;76.20;25.10;;;;;;;3.24;92.83;101099.91;4960447;28;20125;-75
2020/12/17 02:41:11;;;;;;;76.95;26.33;;;;;;;3.23;92.92;101112.22;4993242;28;20042;-76
2020/12/17 02:43:37;;;;;;;75.63;27.13;;;;;;;3.29;92.92;101109.50;4993398;28;20041;-78
2020/12/17 02:46:03;;;;;;;76.50;25.95;;;;;;;3.32;92.51;101117.34;4993094;28;20085;-77
2020/12/17 02:48:28;;;;;;;74.15;25.25;;;;;;;3.29;92.48;101104.22;4960201;28;20050;-78
2020/12/17 02:50:53;;;;;;;73.50;25.23;;;;;;;3.29;92.78;101109.50;4993312;28;20042;-77
2020/12/17 02:53:19;;;;;;;72.50;26.30;;;;;;;3.34;92.52;101112.91;4975929;28;20134;-76
2020/12/17 02:55:44;;;;;;;77.20;25.80;;;;;;;3.23;92.24;101091.13;4975599;28;20137;-76
2020/12/17 02:58:10;;;;;;;70.07;25.33;;;;;;;3.02;92.22;101057.22;4975671;28;20093;-76
2020/12/17 03:00:36;;;;;;;74.88;25.83;;;;;;;3.28;92.23;101097.22;4993124;28;20074;-77
2020/12/17 03:03:02;;;;;;;76.70;24.95;;;;;;;3.01;92.28;101056.34;4992787;28;20109;-76
2020/12/17 03:05:27;;;;;;;72.60;25.38;;;;;;;3.38;92.08;101093.50;4976254;28;20121;-77
2020/12/17 03:07:53;;;;;;;74.45;24.13;;;;;;;3.34;92.52;101093.56;4975651;28;20042;-79
2020/12/17 03:10:19;;;;;;;68.88;24.70;;;;;;;3.38;91.81;101093.50;4976041;28;20030;-74
2020/12/17 03:12:45;;;;;;;69.53;24.42;;;;;;;3.41;91.32;101098.72;4975960;28;20045;-75
2020/12/17 03:15:12;;;;;;;66.75;23.05;;;;;;;3.29;91.93;101072.56;4992832;28;20042;-74
2020/12/17 03:17:38;;;;;;;68.47;23.52;;;;;;;3.32;91.98;101083.06;4959559;28;20070;-76
2020/12/17 03:20:08;;;;;;;70.57;24.95;;;;;;;3.20;92.21;101062.19;4993045;28;20058;-76
2020/12/17 03:22:34;;;;;;;66.53;25.08;;;;;;;3.02;91.83;101041.41;4959805;28;20034;-76
2020/12/17 03:25:00;;;;;;;75.68;24.42;;;;;;;3.36;92.09;101095.28;4975333;28;20128;-75
2020/12/17 03:27:26;;;;;;;64.85;23.77;;;;;;;3.36;92.10;101097.91;4976273;28;20045;-75
2020/12/17 03:29:51;;;;;;;72.22;24.20;;;;;;;3.35;91.69;101104.09;4979224;28;20038;-76
2020/12/17 03:32:16;;;;;;;63.70;22.67;;;;;;;3.04;92.01;101047.50;4979163;28;20065;-75
2020/12/17 03:34:42;;;;;;;66.60;23.73;;;;;;;3.35;91.97;101098.81;4996654;28;20035;-75
2020/12/17 03:37:08;;;;;;;68.32;23.45;;;;;;;3.15;91.98;101061.38;4979092;28;20039;-75
2020/12/17 03:39:35;;;;;;;69.18;24.35;;;;;;;3.37;91.78;101096.16;4996648;28;20066;-74
2020/12/17 03:42:00;;;;;;;70.57;24.05;;;;;;;3.41;92.03;101104.00;4978827;28;20030;-75
2020/12/17 03:44:26;;;;;;;78.38;24.92;;;;;;;3.09;92.00;101062.38;4996332;28;20037;-75
2020/12/17 03:46:51;;;;;;;72.28;24.33;;;;;;;3.11;91.80;101054.44;4996198;28;20034;-75
2020/12/17 03:49:17;;;;;;;70.20;24.02;;;;;;;3.36;91.92;101105.84;4978407;28;20046;-74
2020/12/17 03:51:42;;;;;;;65.10;23.60;;;;;;;3.03;91.73;101038.75;4996141;28;20125;-74
2020/12/17 03:54:07;;;;;;;72.47;24.42;;;;;;;3.38;91.59;101108.47;4996236;28;20038;-74
2020/12/17 03:56:33;;;;;;;72.88;23.80;;;;;;;3.07;91.97;101060.63;4975442;28;20055;-74
2020/12/17 03:58:58;;;;;;;67.53;23.48;;;;;;;3.11;92.09;101067.59;4959108;28;20042;-73
2020/12/17 04:01:23;;;;;;;70.72;23.90;;;;;;;3.34;92.40;101102.34;4959264;28;20038;-75
2020/12/17 04:03:49;;;;;;;66.55;24.20;;;;;;;3.34;91.74;101104.13;4959262;28;20101;-74
2020/12/17 04:06:14;;;;;;;68.55;21.85;;;;;;;3.44;91.85;101106.56;4975023;28;20035;-74
2020/12/17 04:08:42;;;;;;;63.63;21.63;;;;;;;3.31;91.37;101086.59;4975259;28;20039;-74
2020/12/17 04:11:09;;;;;;;62.28;21.80;;;;;;;3.17;91.33;101067.50;4976139;28;20058;-75
2020/12/17 04:13:34;;;;;;;51.42;20.13;;;;;;;3.42;90.65;101097.81;4976370;28;20043;-75
2020/12/17 04:16:00;;;;;;;65.07;23.08;;;;;;;3.31;90.95;101091.00;4975949;28;20381;-76
2020/12/17 04:18:25;;;;;;;58.75;21.08;;;;;;;3.36;90.84;101100.56;4976403;28;20070;-75
2020/12/17 04:20:50;;;;;;;57.22;20.60;;;;;;;3.11;90.92;101059.69;4959092;28;20038;-75
2020/12/17 04:23:16;;;;;;;62.22;21.80;;;;;;;2.98;91.20;101039.69;4975949;28;20042;-75
2020/12/17 04:25:42;;;;;;;54.20;21.35;;;;;;;3.21;91.32;101069.19;4975072;28;20039;-75
2020/12/17 04:28:08;;;;;;;60.75;21.10;;;;;;;3.25;91.09;101084.06;4974931;28;20093;-75
2020/12/17 04:30:33;;;;;;;59.00;21.63;;;;;;;3.07;90.76;101066.78;4975212;28;20031;-79
2020/12/17 04:32:58;;;;;;;63.08;21.92;;;;;;;3.30;91.03;101094.53;4958442;28;20046;-78
2020/12/17 04:35:24;;;;;;;62.50;21.30;;;;;;;3.33;90.83;101090.06;4974519;28;20049;-80
2020/12/17 04:37:49;;;;;;;58.95;21.05;;;;;;;3.27;90.55;101103.34;4975276;28;20058;-80
2020/12/17 04:40:14;;;;;;;63.88;22.30;;;;;;;3.04;91.38;101068.59;4958648;28;20035;-80
2020/12/17 04:42:43;;;;;;;64.00;22.55;;;;;;;3.29;91.41;101108.63;4975927;28;20357;-78
2020/12/17 04:45:08;;;;;;;64.55;20.88;;;;;;;3.01;91.65;101066.91;4975832;28;20053;-77
2020/12/17 04:47:38;;;;;;;60.92;21.63;;;;;;;3.35;91.72;101101.47;4975906;28;20042;-77
2020/12/17 04:50:08;;;;;;;62.90;21.70;;;;;;;3.36;90.70;101097.91;4975804;28;20177;-76
2020/12/17 04:52:38;;;;;;;59.78;22.40;;;;;;;3.35;90.25;101104.09;4974805;28;20031;-76
2020/12/17 04:55:05;;;;;;;58.88;20.98;;;;;;;3.06;90.81;101050.97;4974261;28;20062;-77
2020/12/17 04:57:32;;;;;;;62.35;23.10;;;;;;;3.36;90.35;101111.09;4975689;28;20427;-77
2020/12/17 04:59:58;;;;;;;67.95;22.98;;;;;;;3.35;90.67;101104.09;4958185;28;20113;-79
2020/12/17 05:02:23;;;;;;;67.65;22.20;;;;;;;3.32;90.98;101114.72;4975682;28;20078;-77
2020/12/17 05:04:51;;;;;;;67.63;23.02;;;;;;;3.34;91.22;101107.63;4975603;28;20030;-76
2020/12/17 05:07:24;;;;;;;61.08;22.95;;;;;;;3.33;90.85;101112.94;4975162;28;20034;-76
2020/12/17 05:09:50;;;;;;;62.72;22.83;;;;;;;3.34;91.36;101105.00;4975456;28;20042;-75
2020/12/17 05:12:17;;;;;;;69.88;22.02;;;;;;;3.10;90.75;101072.00;4974936;28;20042;-75
2020/12/17 05:14:43;;;;;;;64.68;23.27;;;;;;;3.34;90.78;101104.13;4975636;28;20057;-75
2020/12/17 05:17:09;;;;;;;60.88;22.13;;;;;;;3.25;91.11;101091.97;4974924;28;20035;-74
2020/12/17 05:19:35;;;;;;;66.90;22.63;;;;;;;3.34;91.08;101112.91;4958196;28;20085;-75
2020/12/17 05:22:03;;;;;;;59.38;21.27;;;;;;;3.37;91.11;101106.69;4974668;28;20077;-77
2020/12/17 05:24:29;;;;;;;63.50;22.02;;;;;;;3.38;90.97;101108.47;4973939;28;20078;-75
2020/12/17 05:26:56;;;;;;;55.97;21.33;;;;;;;3.37;90.55;101112.84;4975109;28;20038;-75
2020/12/17 05:29:22;;;;;;;51.55;19.30;;;;;;;3.28;90.15;101096.31;4974719;28;20089;-74
2020/12/17 05:31:48;;;;;;;53.65;18.80;;;;;;;3.27;90.28;101097.22;4975004;28;20039;-75
2020/12/17 05:34:14;;;;;;;51.83;20.00;;;;;;;3.26;90.42;101104.25;4973508;28;20033;-75
2020/12/17 05:36:42;;;;;;;54.47;19.70;;;;;;;3.27;90.42;101099.84;4973684;28;20387;-75
2020/12/17 05:39:16;;;;;;;53.92;18.90;;;;;;;3.34;89.85;101122.59;4973262;28;20038;-75
2020/12/17 05:41:44;;;;;;;49.10;18.77;;;;;;;3.36;89.93;101123.41;4974962;28;20050;-74
2020/12/17 05:44:18;;;;;;;51.33;19.25;;;;;;;3.39;89.85;101132.19;4974410;28;20491;-74
2020/12/17 05:46:46;;;;;;;47.70;18.98;;;;;;;3.42;89.73;101128.59;4973803;28;20035;-75
2020/12/17 05:49:14;;;;;;;57.80;19.15;;;;;;;3.25;89.54;101089.31;4974969;28;20491;-75
2020/12/17 05:51:40;;;;;;;50.00;19.35;;;;;;;3.29;90.30;101087.53;4973941;28;20476;-75
2020/12/17 05:54:10;;;;;;;58.17;20.08;;;;;;;3.50;89.97;101136.41;4974033;28;20121;-76
2020/12/17 05:56:38;;;;;;;57.30;20.92;;;;;;;3.50;90.30;101131.13;4990225;28;20141;-75
2020/12/17 05:59:05;;;;;;;63.65;23.83;;;;;;;3.39;89.93;101121.63;4960328;28;20037;-76
2020/12/17 06:01:31;;;;;;;60.58;22.05;;;;;;;3.52;90.53;101135.47;4994081;28;20126;-77
2020/12/17 06:03:56;;;;;;;53.47;20.30;;;;;;;3.49;89.82;101121.47;4993875;28;20454;-75
2020/12/17 06:06:23;;;;;;;50.88;19.10;;;;;;;3.50;89.30;101133.75;4976108;28;20129;-78
2020/12/17 06:08:53;;;;;;;53.30;20.27;;;;;;;3.51;89.41;101140.78;4993777;28;20071;-77
2020/12/17 06:11:23;;;;;;;65.15;22.80;;;;;;;3.43;89.50;101128.56;4976327;28;20395;-78
2020/12/17 06:13:55;;;;;;;61.95;22.50;;;;;;;3.16;89.91;101092.13;4976362;28;20034;-78
2020/12/17 06:16:25;;;;;;;65.70;21.10;;;;;;;3.30;89.97;101121.78;4993472;28;20069;-78
2020/12/17 06:18:58;;;;;;;72.68;21.70;;;;;;;3.33;90.10;101150.72;4976551;28;20468;-79
2020/12/17 06:21:27;;;;;;;63.60;21.45;;;;;;;3.33;89.90;101147.22;4993563;28;20037;-79
2020/12/17 06:23:59;;;;;;;61.75;21.05;;;;;;;3.27;89.15;101137.63;4976469;28;20038;-75
2020/12/17 06:26:26;;;;;;;64.30;21.50;;;;;;;3.35;89.58;101143.66;4993630;28;20045;-78
2020/12/17 06:28:52;;;;;;;66.05;21.85;;;;;;;3.32;90.43;101151.63;4976440;28;20031;-76
2020/12/17 06:31:26;;;;;;;67.13;22.80;;;;;;;3.22;90.74;101142.13;4993367;28;20431;-76
2020/12/17 06:33:55;;;;;;;72.88;22.45;;;;;;;3.32;90.16;101156.03;4993699;28;20038;-76
2020/12/17 06:36:44;;;;;;;62.40;20.95;;;;;;;3.30;90.15;101163.97;4993459;28;20038;-76
2020/12/17 06:39:09;;;;;;;63.42;21.67;;;;;;;3.35;89.73;101155.97;4976168;28;20035;-77
2020/12/17 06:41:36;;;;;;;62.08;21.33;;;;;;;3.25;89.85;101147.34;4975993;28;20117;-76
2020/12/17 06:44:24;;;;;;;64.85;20.77;;;;;;;3.33;89.92;101163.91;4993412;28;20030;-75
2020/12/17 06:46:56;;;;;;;64.13;22.58;;;;;;;3.28;89.82;101155.22;4993500;28;20101;-78
2020/12/17 06:49:24;;;;;;;71.43;22.38;;;;;;;3.26;89.88;101156.13;4993414;28;20407;-79
2020/12/17 06:52:01;;;;;;;64.15;21.50;;;;;;;3.38;89.96;101180.53;4993612;28;20045;-79
2020/12/17 06:54:26;;;;;;;65.22;22.13;;;;;;;3.32;89.59;101172.72;4993275;28;20041;-80
2020/12/17 06:57:16;;;;;;;66.67;20.47;;;;;;;3.33;89.73;101174.47;4993610;28;20050;-76
2020/12/17 06:59:44;;;;;;;60.42;20.60;;;;;;;3.18;89.36;101145.69;4972999;28;20268;-76
2020/12/17 07:02:14;;;;;;;52.78;20.33;;;;;;;3.45;88.64;101183.94;4995183;28;20069;-75
2020/12/17 07:04:44;;;;;;;65.85;20.15;;;;;;;3.34;89.21;101176.19;4999543;28;20169;-78
2020/12/17 07:07:16;;;;;;;59.08;19.63;;;;;;;3.23;89.25;101158.81;4979406;28;20515;-78
2020/12/17 07:09:43;;;;;;;55.55;19.17;;;;;;;3.30;89.10;101165.75;4997114;28;20413;-78
2020/12/17 07:12:32;;;;;;;60.78;19.70;;;;;;;3.04;89.52;101132.72;4996886;28;20030;-78
2020/12/17 07:14:58;;;;;;;53.83;19.73;;;;;;;3.41;89.24;101169.06;4998044;28;20034;-77
2020/12/17 07:17:25;;;;;;;59.42;19.95;;;;;;;3.34;88.53;101159.50;4996462;28;20038;-76
2020/12/17 07:19:52;;;;;;;60.38;21.40;;;;;;;3.22;88.94;101155.31;4997118;28;20070;-78
2020/12/17 07:22:18;;;;;;;60.17;20.52;;;;;;;3.49;89.04;101190.91;4996930;28;20043;-78
2020/12/17 07:24:46;;;;;;;58.78;21.13;;;;;;;3.44;89.29;101176.91;4979718;28;20038;-76
2020/12/17 07:27:17;;;;;;;59.05;21.42;;;;;;;3.39;89.44;101178.78;4996648;28;20062;-77
2020/12/17 07:30:02;;;;;;;66.32;22.90;;;;;;;3.39;88.99;101186.69;4979282;28;20511;-79
2020/12/17 07:32:33;;;;;;;66.03;22.00;;;;;;;3.45;89.46;101194.50;4996648;28;20109;-75
2020/12/17 07:35:14;;;;;;;69.22;23.30;;;;;;;3.49;89.47;101195.31;4979364;28;20061;-75
2020/12/17 07:37:55;;;;;;;70.25;23.30;;;;;;;3.41;89.67;101188.41;4996522;28;20072;-78
2020/12/17 07:40:26;;;;;;;70.72;22.73;;;;;;;3.47;89.64;101194.44;4996098;28;20392;-77
2020/12/17 07:42:57;;;;;;;72.78;22.10;;;;;;;3.51;89.66;101193.53;4979228;28;20069;-76
2020/12/17 07:45:52;;;;;;;66.55;22.25;;;;;;;3.61;89.11;101195.13;4996074;28;20034;-75
2020/12/17 07:48:43;;;;;;;81.30;24.13;;;;;;;3.55;89.49;101187.28;4978446;28;20460;-74
2020/12/17 07:51:14;;;;;;;67.63;22.85;;;;;;;3.50;89.37;101192.66;4979026;28;20387;-75
2020/12/17 07:53:50;;;;;;;60.67;22.83;;;;;;;3.44;89.61;101163.72;4978804;28;20399;-75
2020/12/17 07:56:17;;;;;;;69.13;22.50;;;;;;;3.51;89.47;101188.25;4978154;28;20058;-75
2020/12/17 07:58:43;;;;;;;67.03;23.45;;;;;;;3.45;89.41;101182.16;4978924;28;20486;-73
2020/12/17 08:01:10;;;;;;;63.92;23.42;;;;;;;3.59;89.36;101194.28;4978643;28;20034;-75
2020/12/17 08:03:49;;;;;;;74.80;24.58;;;;;;;3.43;89.71;101173.41;4978856;28;20030;-75
2020/12/17 08:06:19;;;;;;;75.00;24.63;;;;;;;3.48;89.68;101199.72;4995790;28;20353;-75
2020/12/17 08:08:56;;;;;;;71.82;25.70;;;;;;;3.49;89.54;101206.75;4996092;28;20091;-76
2020/12/17 08:11:22;;;;;;;75.25;24.77;;;;;;;3.52;89.47;101204.06;4978145;28;20030;-74
2020/12/17 08:13:56;;;;;;;72.13;26.92;;;;;;;3.51;89.85;101202.31;4995305;28;20430;-75
2020/12/17 08:16:21;;;;;;;77.43;26.90;;;;;;;3.52;90.03;101209.31;4995824;28;20030;-75
2020/12/17 08:18:53;;;;;;;68.70;24.30;;;;;;;3.45;90.24;101210.31;4978418;28;20053;-75
2020/12/17 08:21:19;;;;;;;76.97;25.90;;;;;;;3.44;90.32;101206.81;4995682;28;20034;-74
2020/12/17 08:23:46;;;;;;;75.85;27.08;;;;;;;3.45;90.18;101200.63;4995582;28;20029;-75
2020/12/17 08:26:23;;;;;;;80.65;27.25;;;;;;;3.50;90.48;101213.75;4995542;28;20504;-75
2020/12/17 08:28:49;;;;;;;80.95;25.45;;;;;;;3.57;90.51;101203.97;4995837;28;20035;-75
2020/12/17 08:31:17;;;;;;;75.38;26.38;;;;;;;3.38;90.45;101172.63;4995572;28;20369;-76
2020/12/17 08:33:45;;;;;;;82.13;25.50;;;;;;;3.55;90.33;101211.03;4995600;28;20113;-75
2020/12/17 08:36:21;;;;;;;69.22;25.55;;;;;;;3.46;90.57;101204.13;4995480;28;20042;-75
2020/12/17 08:39:02;;;;;;;76.93;26.92;;;;;;;3.56;89.90;101205.72;4995726;28;20468;-76
2020/12/17 08:41:30;;;;;;;78.53;26.83;;;;;;;3.68;90.25;101207.31;4995423;28;20177;-75
2020/12/17 08:44:04;;;;;;;72.70;25.85;;;;;;;3.67;89.95;101219.66;4995601;28;20053;-75
2020/12/17 08:46:47;;;;;;;72.97;26.23;;;;;;;3.60;90.46;101209.22;4995132;28;20036;-75
2020/12/17 08:49:14;;;;;;;81.10;27.10;;;;;;;3.59;90.14;101213.63;4995092;28;20034;-74
2020/12/17 08:51:45;;;;;;;77.63;26.98;;;;;;;3.61;90.34;101208.31;4978226;28;20630;-75
2020/12/17 08:54:23;;;;;;;71.55;26.98;;;;;;;3.59;90.57;101210.09;4995495;28;20189;-75
2020/12/17 08:57:00;;;;;;;82.53;27.08;;;;;;;3.57;90.16;101196.03;4995047;28;20097;-75
2020/12/17 08:59:25;;;;;;;80.63;28.10;;;;;;;3.70;90.17;101208.16;4977566;28;20085;-74
2020/12/17 09:01:51;;;;;;;82.20;27.10;;;;;;;3.69;89.88;101214.34;4995135;28;20513;-76
2020/12/17 09:04:17;;;;;;;69.95;26.17;;;;;;;3.71;89.63;101212.53;4977587;28;20026;-76
2020/12/17 09:06:51;;;;;;;66.40;24.67;;;;;;;3.69;89.77;101212.56;4995045;28;20444;-76
2020/12/17 09:09:27;;;;;;;71.95;25.88;;;;;;;3.66;89.70;101209.09;4994772;28;20062;-76
2020/12/17 09:11:54;;;;;;;72.75;25.67;;;;;;;3.65;89.56;101207.34;4994894;28;20026;-75
2020/12/17 09:14:27;;;;;;;73.55;24.23;;;;;;;3.69;89.62;101214.34;4994583;28;20030;-76
2020/12/17 09:16:53;;;;;;;;;;;;;;;3.74;88.89;101217.75;4995295;28;20113;-75
2020/12/17 09:19:18;;;;;;;58.80;21.38;;;;;;;3.54;88.73;101159.19;4977138;28;20292;-74
2020/12/17 09:21:53;;;;;;;63.03;22.75;;;;;;;3.97;87.40;101220.03;4977302;28;20057;-74
2020/12/17 09:24:25;;;;;;;63.00;23.08;;;;;;;3.91;87.65;101217.47;4994538;28;20034;-76
2020/12/17 09:26:50;;;;;;;64.20;24.80;;;;;;;3.80;87.52;101196.56;4994090;28;20038;-75
2020/12/17 09:29:16;;;;;;;60.22;22.67;;;;;;;3.63;88.27;101161.66;4994579;28;20420;-75
2020/12/17 09:31:42;;;;;;;62.58;23.23;;;;;;;3.90;88.21;101208.69;4976979;28;20034;-75
2020/12/17 09:34:08;;;;;;;71.93;27.55;;;;;;;3.96;88.66;101213.88;4976999;28;20123;-74
2020/12/17 09:36:36;;;;;;;76.13;28.60;;;;;;;3.94;88.23;101215.63;4994211;28;20121;-76
2020/12/17 09:39:12;;;;;;;68.45;24.33;;;;;;;3.75;88.03;101169.34;4976856;28;20038;-74
2020/12/17 09:41:40;;;;;;;65.30;24.20;;;;;;;3.90;87.96;101203.41;4994188;28;20121;-75
2020/12/17 09:44:06;;;;;;;58.20;21.92;;;;;;;3.74;87.58;101181.69;4976851;28;20045;-75
2020/12/17 09:46:42;;;;;;;59.40;23.77;;;;;;;3.90;87.79;101202.53;4993999;28;20030;-74
2020/12/17 09:49:08;;;;;;;67.53;25.10;;;;;;;3.86;87.82;101208.75;4994572;28;20074;-74
2020/12/17 09:51:33;;;;;;;69.13;25.83;;;;;;;3.83;87.38;101179.78;4979255;28;20484;-74
2020/12/17 09:54:02;;;;;;;62.78;24.48;;;;;;;3.90;87.74;101213.09;4994274;28;20035;-74
2020/12/17 09:56:28;;;;;;;77.13;27.58;;;;;;;3.95;88.04;101217.38;4993864;28;20054;-75
2020/12/17 09:58:54;;;;;;;66.38;26.85;;;;;;;4.00;87.84;101222.59;4976917;28;20026;-74
2020/12/17 10:01:19;;;;;;;66.22;26.80;;;;;;;3.90;88.10;101203.41;4993722;28;20022;-80
2020/12/17 10:03:45;;;;;;;74.60;27.83;;;;;;;3.98;88.17;101219.13;4993715;28;20464;-75
2020/12/17 10:06:10;;;;;;;84.32;30.55;;;;;;;3.94;89.09;101214.78;4993787;28;20057;-75
2020/12/17 10:08:36;;;;;;;82.50;27.88;;;;;;;3.95;88.82;101217.38;4976456;28;20117;-74
2020/12/17 10:11:01;;;;;;;79.45;29.17;;;;;;;3.72;89.02;101179.97;4993727;28;20031;-75
2020/12/17 10:13:27;;;;;;;77.82;27.00;;;;;;;3.92;88.98;101216.56;4976472;28;20084;-75
2020/12/17 10:15:52;;;;;;;70.03;26.75;;;;;;;3.92;88.62;101222.72;4994137;28;20030;-75
2020/12/17 10:18:18;;;;;;;75.05;27.88;;;;;;;3.87;88.38;101214.03;4994116;28;20077;-75
2020/12/17 10:20:43;;;;;;;81.05;29.05;;;;;;;3.73;88.42;101184.34;4993882;28;20061;-74
2020/12/17 10:23:09;;;;;;;85.22;30.50;;;;;;;4.01;88.03;101217.28;4994326;28;20440;-75
2020/12/17 10:25:34;;;;;;;78.20;29.63;;;;;;;3.76;87.82;101179.00;4960206;28;20045;-75
2020/12/17 10:28:00;;;;;;;88.63;29.77;;;;;;;3.98;88.37;101206.78;4993698;28;20410;-75
2020/12/17 10:30:26;;;;;;;75.75;27.00;;;;;;;3.92;87.40;101180.47;4993564;28;20026;-75
2020/12/17 10:32:51;;;;;;;75.00;27.30;;;;;;;4.09;87.71;101216.28;4960177;28;20160;-74
2020/12/17 10:35:17;;;;;;;79.78;28.73;;;;;;;3.73;87.50;101173.78;4976111;28;20045;-76
2020/12/17 10:37:43;;;;;;;78.68;27.98;;;;;;;3.94;88.26;101199.81;4996482;28;20061;-75
2020/12/17 10:40:10;;;;;;;72.00;26.75;;;;;;;3.99;88.25;101203.25;4997712;28;20172;-75
2020/12/17 10:42:39;;;;;;;73.63;26.98;;;;;;;4.09;88.31;101214.50;4997653;28;20035;-74
2020/12/17 10:45:09;;;;;;;73.85;26.58;;;;;;;4.08;88.16;101199.56;4980872;28;20117;-75
2020/12/17 10:47:35;;;;;;;72.65;25.65;;;;;;;3.98;88.09;101190.06;4997357;28;20046;-75
2020/12/17 10:50:02;;;;;;;75.35;25.75;;;;;;;3.98;88.10;101196.22;4997364;28;20138;-74
2020/12/17 10:52:27;;;;;;;75.03;26.55;;;;;;;3.91;87.90;101184.03;4980110;28;20050;-75
2020/12/17 10:54:52;;;;;;;72.60;26.98;;;;;;;4.10;87.59;101213.59;4947984;28;20415;-75
2020/12/17 10:57:19;;;;;;;77.32;26.92;;;;;;;4.10;88.34;101218.03;4979986;28;20034;-74
2020/12/17 10:59:46;;;;;;;90.10;28.13;;;;;;;4.06;88.18;101214.56;4997092;28;20077;-75
2020/12/17 11:02:11;;;;;;;70.35;26.17;;;;;;;4.08;88.11;101206.63;4997104;28;20069;-75
2020/12/17 11:04:36;;;;;;;66.97;24.70;;;;;;;4.07;88.01;101210.16;4996841;28;20058;-75
2020/12/17 11:07:01;;;;;;;65.22;23.90;;;;;;;4.08;87.53;101206.63;4963655;28;20085;-75
2020/12/17 11:09:27;;;;;;;74.13;24.27;;;;;;;4.03;87.58;101199.63;4997040;28;20126;-76
2020/12/17 11:11:53;;;;;;;72.47;25.75;;;;;;;4.09;87.14;101208.34;4997206;28;20031;-74
2020/12/17 11:14:19;;;;;;;72.60;24.10;;;;;;;4.07;87.93;101202.25;4979585;28;20026;-75
2020/12/17 11:16:44;;;;;;;69.65;25.23;;;;;;;4.13;88.21;101215.31;4996781;28;20122;-75
2020/12/17 11:19:10;;;;;;;70.50;25.95;;;;;;;4.15;88.14;101213.50;4996654;28;20074;-75